sensor_id;sensor_type;location;lat;lon;timestamp;pressure;altitude;pressure_sealevel;temperature;humidity
19672;BME280;9983;51.114;13.788;2022-12-07T00:03:00;99135.66;;;4.35;100.00
19672;BME280;9983;51.114;13.788;2022-12-07T00:08:00;99141.75;;;4.45;100.00
19672;BME280;9983;51.114;13.788;2022-12-07T00:13:00;99141.31;;;3.84;100.00
19672;BME280;9983;51.114;13.788;2022-12-07T00:18:00;99137.09;;;4.10;100.00
19672;BME280;9983;51.114;13.788;2022-12-07T00:23:01;99134.03;;;3.95;100.00
19672;BME280;9983;51.114;13.788;2022-12-07T00:28:01;99120.38;;;3.61;100.00
19672;BME280;9983;51.114;13.788;2022-12-07T00:33:01;99122.03;;;3.72;100.00
19672;BME280;9983;51.114;13.788;2022-12-07T00:38:02;99121.19;;;4.00;100.00
19672;BME280;9983;51.114;13.788;2022-12-07T00:43:02;99119.94;;;3.95;100.00
19672;BME280;9983;51.114;13.788;2022-12-07T00:48:02;99112.81;;;3.95;100.00
19672;BME280;9983;51.114;13.788;2022-12-07T00:53:03;99113.66;;;3.96;100.00
19672;BME280;9983;51.114;13.788;2022-12-07T00:58:03;99108.66;;;3.73;100.00
19672;BME280;9983;51.114;13.788;2022-12-07T01:03:05;99100.13;;;3.99;100.00
19672;BME280;9983;51.114;13.788;2022-12-07T01:08:06;99112.69;;;3.97;100.00
19672;BME280;9983;51.114;13.788;2022-12-07T01:13:07;99109.16;;;4.15;100.00
19672;BME280;9983;51.114;13.788;2022-12-07T01:18:07;99103.25;;;4.31;100.00
19672;BME280;9983;51.114;13.788;2022-12-07T01:23:07;99105.97;;;4.58;100.00
19672;BME280;9983;51.114;13.788;2022-12-07T01:28:07;99102.78;;;4.82;100.00
19672;BME280;9983;51.114;13.788;2022-12-07T01:33:08;99093.88;;;4.74;100.00
19672;BME280;9983;51.114;13.788;2022-12-07T01:38:08;99094.19;;;4.61;100.00
19672;BME280;9983;51.114;13.788;2022-12-07T01:43:18;99097.94;;;4.31;100.00
19672;BME280;9983;51.114;13.788;2022-12-07T01:48:32;99103.41;;;4.67;100.00
19672;BME280;9983;51.114;13.788;2022-12-07T01:53:36;99101.41;;;4.69;100.00
19672;BME280;9983;51.114;13.788;2022-12-07T01:58:38;99098.53;;;4.25;100.00
19672;BME280;9983;51.114;13.788;2022-12-07T02:03:40;99093.84;;;4.00;100.00
19672;BME280;9983;51.114;13.788;2022-12-07T02:08:42;99097.84;;;4.13;100.00
19672;BME280;9983;51.114;13.788;2022-12-07T02:13:43;99098.41;;;4.17;100.00
19672;BME280;9983;51.114;13.788;2022-12-07T02:29:27;99086.50;;;4.31;100.00
19672;BME280;9983;51.114;13.788;2022-12-07T02:35:15;99081.09;;;4.13;100.00
19672;BME280;9983;51.114;13.788;2022-12-07T02:45:22;99078.47;;;4.03;100.00
19672;BME280;9983;51.114;13.788;2022-12-07T02:50:24;99072.31;;;4.03;100.00
19672;BME280;9983;51.114;13.788;2022-12-07T02:55:30;99062.25;;;4.06;100.00
19672;BME280;9983;51.114;13.788;2022-12-07T03:00:41;99064.19;;;4.14;100.00
19672;BME280;9983;51.114;13.788;2022-12-07T03:06:10;99055.91;;;3.70;100.00
19672;BME280;9983;51.114;13.788;2022-12-07T03:11:29;99053.13;;;3.62;100.00
19672;BME280;9983;51.114;13.788;2022-12-07T03:16:35;99040.22;;;4.06;100.00
19672;BME280;9983;51.114;13.788;2022-12-07T03:21:45;99040.22;;;3.96;100.00
19672;BME280;9983;51.114;13.788;2022-12-07T03:26:49;99038.44;;;3.77;100.00
19672;BME280;9983;51.114;13.788;2022-12-07T03:31:59;99040.25;;;3.87;100.00
19672;BME280;9983;51.114;13.788;2022-12-07T03:37:14;99032.41;;;3.95;100.00
19672;BME280;9983;51.114;13.788;2022-12-07T03:42:17;99033.00;;;3.79;100.00
19672;BME280;9983;51.114;13.788;2022-12-07T03:47:31;99022.97;;;3.83;100.00
19672;BME280;9983;51.114;13.788;2022-12-07T03:52:39;99033.03;;;3.69;100.00
19672;BME280;9983;51.114;13.788;2022-12-07T03:57:40;99028.28;;;3.63;100.00
19672;BME280;9983;51.114;13.788;2022-12-07T04:02:42;99014.09;;;3.45;100.00
19672;BME280;9983;51.114;13.788;2022-12-07T04:07:43;99027.28;;;3.84;100.00
19672;BME280;9983;51.114;13.788;2022-12-07T04:12:43;99016.56;;;3.75;100.00
19672;BME280;9983;51.114;13.788;2022-12-07T04:17:43;99010.09;;;3.88;100.00
19672;BME280;9983;51.114;13.788;2022-12-07T04:22:44;99005.97;;;3.75;100.00
19672;BME280;9983;51.114;13.788;2022-12-07T04:27:44;98994.31;;;3.39;100.00
19672;BME280;9983;51.114;13.788;2022-12-07T04:32:44;99000.44;;;3.01;100.00
19672;BME280;9983;51.114;13.788;2022-12-07T04:37:44;98983.13;;;3.55;100.00
19672;BME280;9983;51.114;13.788;2022-12-07T04:42:45;98977.22;;;3.61;100.00
19672;BME280;9983;51.114;13.788;2022-12-07T04:47:45;98966.94;;;3.58;100.00
19672;BME280;9983;51.114;13.788;2022-12-07T04:52:45;98977.53;;;3.58;100.00
19672;BME280;9983;51.114;13.788;2022-12-07T04:57:45;98968.03;;;3.65;100.00
19672;BME280;9983;51.114;13.788;2022-12-07T05:02:46;98961.06;;;3.64;100.00
19672;BME280;9983;51.114;13.788;2022-12-07T05:07:46;98955.75;;;3.64;100.00
19672;BME280;9983;51.114;13.788;2022-12-07T05:12:46;98948.28;;;3.31;100.00
19672;BME280;9983;51.114;13.788;2022-12-07T05:17:47;98947.97;;;3.53;100.00
19672;BME280;9983;51.114;13.788;2022-12-07T05:22:47;98951.16;;;3.66;100.00
19672;BME280;9983;51.114;13.788;2022-12-07T05:27:47;98951.06;;;3.39;100.00
19672;BME280;9983;51.114;13.788;2022-12-07T05:32:48;98944.88;;;3.67;100.00
19672;BME280;9983;51.114;13.788;2022-12-07T05:37:48;98940.97;;;3.52;100.00
19672;BME280;9983;51.114;13.788;2022-12-07T05:42:48;98935.09;;;3.68;100.00
19672;BME280;9983;51.114;13.788;2022-12-07T05:47:48;98928.44;;;3.54;100.00
19672;BME280;9983;51.114;13.788;2022-12-07T05:52:49;98918.03;;;3.80;100.00
19672;BME280;9983;51.114;13.788;2022-12-07T05:57:49;98923.31;;;3.80;100.00
19672;BME280;9983;51.114;13.788;2022-12-07T06:03:08;98908.28;;;4.08;100.00
19672;BME280;9983;51.114;13.788;2022-12-07T06:08:08;98910.41;;;3.95;100.00
19672;BME280;9983;51.114;13.788;2022-12-07T06:13:09;98907.81;;;4.12;100.00
19672;BME280;9983;51.114;13.788;2022-12-07T06:18:09;98905.44;;;3.92;100.00
19672;BME280;9983;51.114;13.788;2022-12-07T06:23:09;98898.38;;;4.10;100.00
19672;BME280;9983;51.114;13.788;2022-12-07T06:28:09;98893.06;;;4.10;100.00
19672;BME280;9983;51.114;13.788;2022-12-07T06:33:10;98894.50;;;3.95;100.00
19672;BME280;9983;51.114;13.788;2022-12-07T06:38:10;98894.72;;;3.37;100.00
19672;BME280;9983;51.114;13.788;2022-12-07T06:43:10;98906.72;;;3.41;100.00
19672;BME280;9983;51.114;13.788;2022-12-07T06:48:10;98903.56;;;3.65;100.00
19672;BME280;9983;51.114;13.788;2022-12-07T06:53:11;98904.81;;;3.24;100.00
19672;BME280;9983;51.114;13.788;2022-12-07T06:58:11;98907.91;;;2.90;100.00
19672;BME280;9983;51.114;13.788;2022-12-07T07:03:11;98907.91;;;2.90;100.00
19672;BME280;9983;51.114;13.788;2022-12-07T07:08:12;98908.16;;;3.16;100.00
19672;BME280;9983;51.114;13.788;2022-12-07T07:13:13;98914.59;;;2.94;100.00
19672;BME280;9983;51.114;13.788;2022-12-07T07:18:13;98906.19;;;3.28;100.00
19672;BME280;9983;51.114;13.788;2022-12-07T07:23:13;98917.66;;;2.99;100.00
19672;BME280;9983;51.114;13.788;2022-12-07T07:28:14;98917.13;;;2.67;100.00
19672;BME280;9983;51.114;13.788;2022-12-07T07:33:15;98919.84;;;2.37;100.00
19672;BME280;9983;51.114;13.788;2022-12-07T07:38:15;98932.97;;;3.15;100.00
19672;BME280;9983;51.114;13.788;2022-12-07T07:43:15;98931.31;;;3.04;100.00
19672;BME280;9983;51.114;13.788;2022-12-07T07:48:16;98918.50;;;3.00;100.00
19672;BME280;9983;51.114;13.788;2022-12-07T07:53:16;98922.03;;;3.47;100.00
19672;BME280;9983;51.114;13.788;2022-12-07T07:58:16;98931.13;;;3.35;100.00
19672;BME280;9983;51.114;13.788;2022-12-07T08:03:16;98932.41;;;3.31;100.00
19672;BME280;9983;51.114;13.788;2022-12-07T08:08:17;98933.50;;;3.38;100.00
19672;BME280;9983;51.114;13.788;2022-12-07T08:13:17;98933.94;;;3.80;100.00
19672;BME280;9983;51.114;13.788;2022-12-07T08:18:17;98923.94;;;3.64;100.00
19672;BME280;9983;51.114;13.788;2022-12-07T08:23:18;98925.63;;;3.65;100.00
19672;BME280;9983;51.114;13.788;2022-12-07T08:28:18;98920.38;;;3.46;100.00
19672;BME280;9983;51.114;13.788;2022-12-07T08:33:18;98921.75;;;3.50;100.00
19672;BME280;9983;51.114;13.788;2022-12-07T08:38:22;98923.09;;;3.73;100.00
19672;BME280;9983;51.114;13.788;2022-12-07T08:43:22;98925.84;;;3.81;100.00
19672;BME280;9983;51.114;13.788;2022-12-07T08:48:22;98932.00;;;3.72;100.00
19672;BME280;9983;51.114;13.788;2022-12-07T08:53:24;98925.81;;;3.91;100.00
19672;BME280;9983;51.114;13.788;2022-12-07T08:58:25;98927.31;;;4.21;100.00
19672;BME280;9983;51.114;13.788;2022-12-07T09:03:25;98926.97;;;3.69;100.00
19672;BME280;9983;51.114;13.788;2022-12-07T09:08:29;98923.78;;;4.03;100.00
19672;BME280;9983;51.114;13.788;2022-12-07T09:13:31;98932.28;;;4.34;100.00
19672;BME280;9983;51.114;13.788;2022-12-07T09:18:31;98941.19;;;4.42;100.00
19672;BME280;9983;51.114;13.788;2022-12-07T09:23:31;98935.69;;;4.26;100.00
19672;BME280;9983;51.114;13.788;2022-12-07T09:28:32;98922.94;;;4.75;100.00
19672;BME280;9983;51.114;13.788;2022-12-07T09:33:32;98929.69;;;4.51;100.00
19672;BME280;9983;51.114;13.788;2022-12-07T09:38:32;98919.22;;;4.68;100.00
19672;BME280;9983;51.114;13.788;2022-12-07T09:43:35;98929.69;;;4.87;100.00
19672;BME280;9983;51.114;13.788;2022-12-07T09:48:37;98929.41;;;4.45;100.00
19672;BME280;9983;51.114;13.788;2022-12-07T09:53:39;98931.63;;;4.49;100.00
19672;BME280;9983;51.114;13.788;2022-12-07T09:58:40;98912.31;;;4.92;100.00
19672;BME280;9983;51.114;13.788;2022-12-07T10:03:48;98921.34;;;4.82;100.00
19672;BME280;9983;51.114;13.788;2022-12-07T10:08:48;98916.41;;;4.87;100.00
19672;BME280;9983;51.114;13.788;2022-12-07T10:13:52;98912.50;;;5.34;100.00
19672;BME280;9983;51.114;13.788;2022-12-07T10:18:54;98902.97;;;5.06;100.00
19672;BME280;9983;51.114;13.788;2022-12-07T10:23:58;98905.69;;;5.14;100.00
19672;BME280;9983;51.114;13.788;2022-12-07T10:29:14;98896.00;;;5.31;100.00
19672;BME280;9983;51.114;13.788;2022-12-07T10:34:32;98894.47;;;5.28;100.00
19672;BME280;9983;51.114;13.788;2022-12-07T10:39:47;98883.66;;;6.07;100.00
19672;BME280;9983;51.114;13.788;2022-12-07T10:44:49;98888.63;;;5.43;100.00
19672;BME280;9983;51.114;13.788;2022-12-07T11:00:24;98887.72;;;5.08;100.00
19672;BME280;9983;51.114;13.788;2022-12-07T11:21:27;98863.47;;;5.37;100.00
19672;BME280;9983;51.114;13.788;2022-12-07T11:26:58;98867.56;;;5.23;100.00
19672;BME280;9983;51.114;13.788;2022-12-07T11:32:19;98864.53;;;5.18;100.00
19672;BME280;9983;51.114;13.788;2022-12-07T11:37:28;98862.34;;;4.96;100.00
19672;BME280;9983;51.114;13.788;2022-12-07T11:42:41;98859.22;;;5.18;100.00
19672;BME280;9983;51.114;13.788;2022-12-07T11:47:53;98872.28;;;4.94;100.00
19672;BME280;9983;51.114;13.788;2022-12-07T11:53:18;98875.22;;;4.47;100.00
19672;BME280;9983;51.114;13.788;2022-12-07T12:03:49;98865.22;;;4.77;100.00
19672;BME280;9983;51.114;13.788;2022-12-07T12:09:01;98873.69;;;4.80;100.00
19672;BME280;9983;51.114;13.788;2022-12-07T12:14:18;98861.97;;;4.20;100.00
19672;BME280;9983;51.114;13.788;2022-12-07T12:19:42;98850.19;;;4.68;100.00
19672;BME280;9983;51.114;13.788;2022-12-07T12:24:49;98849.09;;;4.61;100.00
19672;BME280;9983;51.114;13.788;2022-12-07T12:29:54;98845.31;;;4.81;100.00
19672;BME280;9983;51.114;13.788;2022-12-07T12:35:02;98846.41;;;4.96;100.00
19672;BME280;9983;51.114;13.788;2022-12-07T12:45:22;98839.41;;;5.39;100.00
19672;BME280;9983;51.114;13.788;2022-12-07T13:00:44;98830.28;;;5.75;100.00
19672;BME280;9983;51.114;13.788;2022-12-07T13:05:45;98829.81;;;5.46;100.00
19672;BME280;9983;51.114;13.788;2022-12-07T13:10:46;98829.63;;;5.13;100.00
19672;BME280;9983;51.114;13.788;2022-12-07T13:26:17;98850.22;;;3.77;100.00
19672;BME280;9983;51.114;13.788;2022-12-07T13:36:29;98847.84;;;3.47;100.00
19672;BME280;9983;51.114;13.788;2022-12-07T13:41:35;98828.34;;;3.38;100.00
19672;BME280;9983;51.114;13.788;2022-12-07T13:57:20;98840.63;;;4.39;100.00
19672;BME280;9983;51.114;13.788;2022-12-07T14:07:27;98855.03;;;5.16;100.00
19672;BME280;9983;51.114;13.788;2022-12-07T14:12:29;98846.38;;;5.14;100.00
19672;BME280;9983;51.114;13.788;2022-12-07T14:17:30;98841.25;;;4.94;100.00
19672;BME280;9983;51.114;13.788;2022-12-07T14:22:35;98839.00;;;5.25;100.00
19672;BME280;9983;51.114;13.788;2022-12-07T14:27:36;98833.78;;;4.90;100.00
19672;BME280;9983;51.114;13.788;2022-12-07T14:32:37;98829.09;;;5.10;100.00
19672;BME280;9983;51.114;13.788;2022-12-07T14:37:39;98827.81;;;5.48;100.00
19672;BME280;9983;51.114;13.788;2022-12-07T14:42:40;98826.16;;;5.47;100.00
19672;BME280;9983;51.114;13.788;2022-12-07T14:47:41;98826.22;;;5.63;100.00
19672;BME280;9983;51.114;13.788;2022-12-07T14:52:44;98812.75;;;5.90;100.00
19672;BME280;9983;51.114;13.788;2022-12-07T14:57:45;98822.78;;;5.70;100.00
19672;BME280;9983;51.114;13.788;2022-12-07T15:02:46;98825.66;;;5.43;100.00
19672;BME280;9983;51.114;13.788;2022-12-07T15:07:47;98832.53;;;5.28;100.00
19672;BME280;9983;51.114;13.788;2022-12-07T15:12:48;98816.63;;;5.70;100.00
19672;BME280;9983;51.114;13.788;2022-12-07T15:17:48;98823.41;;;5.90;100.00
19672;BME280;9983;51.114;13.788;2022-12-07T15:22:49;98835.22;;;5.96;100.00
19672;BME280;9983;51.114;13.788;2022-12-07T15:27:49;98852.16;;;4.66;100.00
19672;BME280;9983;51.114;13.788;2022-12-07T15:32:50;98861.84;;;4.39;100.00
19672;BME280;9983;51.114;13.788;2022-12-07T15:37:50;98847.34;;;4.87;100.00
19672;BME280;9983;51.114;13.788;2022-12-07T15:42:51;98852.09;;;4.57;100.00
19672;BME280;9983;51.114;13.788;2022-12-07T15:47:51;98840.28;;;4.78;100.00
19672;BME280;9983;51.114;13.788;2022-12-07T15:52:51;98842.44;;;4.92;100.00
19672;BME280;9983;51.114;13.788;2022-12-07T15:57:52;98838.03;;;4.83;100.00
19672;BME280;9983;51.114;13.788;2022-12-07T16:02:52;98839.00;;;5.25;100.00
19672;BME280;9983;51.114;13.788;2022-12-07T16:07:52;98843.28;;;5.18;100.00
19672;BME280;9983;51.114;13.788;2022-12-07T16:12:52;98840.25;;;5.13;100.00
19672;BME280;9983;51.114;13.788;2022-12-07T16:17:53;98830.94;;;5.09;100.00
19672;BME280;9983;51.114;13.788;2022-12-07T16:22:53;98841.16;;;5.04;100.00
19672;BME280;9983;51.114;13.788;2022-12-07T16:27:54;98843.03;;;5.12;100.00
19672;BME280;9983;51.114;13.788;2022-12-07T16:32:54;98850.25;;;4.93;100.00
19672;BME280;9983;51.114;13.788;2022-12-07T16:37:55;98843.41;;;4.91;100.00
19672;BME280;9983;51.114;13.788;2022-12-07T16:42:55;98842.16;;;4.60;100.00
19672;BME280;9983;51.114;13.788;2022-12-07T16:47:55;98847.72;;;4.92;100.00
19672;BME280;9983;51.114;13.788;2022-12-07T16:52:55;98836.00;;;4.59;100.00
19672;BME280;9983;51.114;13.788;2022-12-07T16:57:56;98846.09;;;4.73;100.00
19672;BME280;9983;51.114;13.788;2022-12-07T17:02:56;98840.16;;;4.62;100.00
19672;BME280;9983;51.114;13.788;2022-12-07T17:07:56;98834.69;;;4.81;100.00
19672;BME280;9983;51.114;13.788;2022-12-07T17:12:57;98843.75;;;4.96;100.00
19672;BME280;9983;51.114;13.788;2022-12-07T17:17:57;98840.84;;;4.64;100.00
19672;BME280;9983;51.114;13.788;2022-12-07T17:22:58;98842.59;;;4.73;100.00
19672;BME280;9983;51.114;13.788;2022-12-07T17:27:58;98834.50;;;5.00;100.00
19672;BME280;9983;51.114;13.788;2022-12-07T17:32:58;98843.47;;;5.25;100.00
19672;BME280;9983;51.114;13.788;2022-12-07T17:37:59;98831.59;;;5.11;100.00
19672;BME280;9983;51.114;13.788;2022-12-07T17:42:59;98837.19;;;4.82;100.00
19672;BME280;9983;51.114;13.788;2022-12-07T17:47:59;98836.91;;;5.11;100.00
19672;BME280;9983;51.114;13.788;2022-12-07T17:52:59;98836.28;;;5.17;100.00
19672;BME280;9983;51.114;13.788;2022-12-07T17:58:12;98845.53;;;4.87;100.00
19672;BME280;9983;51.114;13.788;2022-12-07T18:03:12;98838.75;;;4.49;100.00
19672;BME280;9983;51.114;13.788;2022-12-07T18:08:12;98845.19;;;4.65;100.00
19672;BME280;9983;51.114;13.788;2022-12-07T18:13:12;98850.88;;;4.34;100.00
19672;BME280;9983;51.114;13.788;2022-12-07T18:18:32;98850.78;;;4.62;100.00
19672;BME280;9983;51.114;13.788;2022-12-07T18:23:32;98850.69;;;4.36;100.00
19672;BME280;9983;51.114;13.788;2022-12-07T18:28:32;98841.97;;;4.08;100.00
19672;BME280;9983;51.114;13.788;2022-12-07T18:33:33;98847.84;;;4.65;100.00
19672;BME280;9983;51.114;13.788;2022-12-07T18:38:33;98839.09;;;4.19;100.00
19672;BME280;9983;51.114;13.788;2022-12-07T18:43:34;98864.53;;;4.12;100.00
19672;BME280;9983;51.114;13.788;2022-12-07T18:48:34;98846.78;;;4.57;100.00
19672;BME280;9983;51.114;13.788;2022-12-07T18:53:35;98848.31;;;4.86;100.00
19672;BME280;9983;51.114;13.788;2022-12-07T18:58:35;98847.59;;;4.40;100.00
19672;BME280;9983;51.114;13.788;2022-12-07T19:03:36;98850.47;;;4.29;100.00
19672;BME280;9983;51.114;13.788;2022-12-07T19:08:37;98851.31;;;4.65;100.00
19672;BME280;9983;51.114;13.788;2022-12-07T19:13:37;98849.09;;;4.61;100.00
19672;BME280;9983;51.114;13.788;2022-12-07T19:18:39;98853.38;;;4.53;100.00
19672;BME280;9983;51.114;13.788;2022-12-07T19:23:39;98839.50;;;5.03;100.00
19672;BME280;9983;51.114;13.788;2022-12-07T19:28:39;98852.28;;;4.82;100.00
19672;BME280;9983;51.114;13.788;2022-12-07T19:33:40;98855.50;;;4.68;100.00
19672;BME280;9983;51.114;13.788;2022-12-07T19:38:40;98844.47;;;4.45;100.00
19672;BME280;9983;51.114;13.788;2022-12-07T19:43:40;98839.38;;;4.87;100.00
19672;BME280;9983;51.114;13.788;2022-12-07T19:48:40;98843.97;;;4.77;100.00
19672;BME280;9983;51.114;13.788;2022-12-07T19:53:41;98849.09;;;4.61;100.00
19672;BME280;9983;51.114;13.788;2022-12-07T19:58:41;98838.66;;;4.41;100.00
19672;BME280;9983;51.114;13.788;2022-12-07T20:03:42;98829.84;;;4.23;100.00
19672;BME280;9983;51.114;13.788;2022-12-07T20:08:43;98838.19;;;4.64;100.00
19672;BME280;9983;51.114;13.788;2022-12-07T20:13:44;98841.47;;;4.57;100.00
19672;BME280;9983;51.114;13.788;2022-12-07T20:18:44;98830.91;;;4.66;100.00
19672;BME280;9983;51.114;13.788;2022-12-07T20:23:45;98837.16;;;4.56;100.00
19672;BME280;9983;51.114;13.788;2022-12-07T20:28:45;98830.91;;;4.30;100.00
19672;BME280;9983;51.114;13.788;2022-12-07T20:33:47;98829.31;;;4.55;100.00
19672;BME280;9983;51.114;13.788;2022-12-07T20:38:47;98826.16;;;4.51;100.00
19672;BME280;9983;51.114;13.788;2022-12-07T20:43:48;98825.31;;;4.33;100.00
19672;BME280;9983;51.114;13.788;2022-12-07T20:48:48;98825.25;;;4.25;100.00
19672;BME280;9983;51.114;13.788;2022-12-07T20:53:48;98818.84;;;4.53;100.00
19672;BME280;9983;51.114;13.788;2022-12-07T20:58:49;98821.66;;;4.70;100.00
19672;BME280;9983;51.114;13.788;2022-12-07T21:03:53;98818.47;;;4.84;100.00
19672;BME280;9983;51.114;13.788;2022-12-07T21:08:55;98823.19;;;4.54;100.00
19672;BME280;9983;51.114;13.788;2022-12-07T21:13:56;98823.31;;;4.71;100.00
19672;BME280;9983;51.114;13.788;2022-12-07T21:18:59;98823.94;;;4.29;100.00
19672;BME280;9983;51.114;13.788;2022-12-07T21:24:03;98816.22;;;4.18;100.00
19672;BME280;9983;51.114;13.788;2022-12-07T21:29:06;98823.03;;;4.38;100.00
19672;BME280;9983;51.114;13.788;2022-12-07T21:34:06;98825.75;;;4.29;100.00
19672;BME280;9983;51.114;13.788;2022-12-07T21:39:06;98825.53;;;4.40;100.00
19672;BME280;9983;51.114;13.788;2022-12-07T21:44:07;98824.16;;;4.36;100.00
19672;BME280;9983;51.114;13.788;2022-12-07T21:49:11;98819.25;;;4.58;100.00
19672;BME280;9983;51.114;13.788;2022-12-07T21:54:12;98812.88;;;4.51;100.00
19672;BME280;9983;51.114;13.788;2022-12-07T21:59:14;98811.84;;;4.88;100.00
19672;BME280;9983;51.114;13.788;2022-12-07T22:04:19;98814.66;;;4.69;100.00
19672;BME280;9983;51.114;13.788;2022-12-07T22:09:19;98812.56;;;4.19;100.00
19672;BME280;9983;51.114;13.788;2022-12-07T22:14:22;98823.84;;;4.74;100.00
19672;BME280;9983;51.114;13.788;2022-12-07T22:19:41;98818.63;;;4.65;100.00
19672;BME280;9983;51.114;13.788;2022-12-07T22:24:42;98819.91;;;4.61;100.00
19672;BME280;9983;51.114;13.788;2022-12-07T22:29:42;98820.44;;;4.82;100.00
19672;BME280;9983;51.114;13.788;2022-12-07T22:34:42;98813.03;;;4.68;100.00
19672;BME280;9983;51.114;13.788;2022-12-07T22:39:42;98811.47;;;4.83;100.00
19672;BME280;9983;51.114;13.788;2022-12-07T22:44:43;98804.03;;;4.69;100.00
19672;BME280;9983;51.114;13.788;2022-12-07T22:49:43;98794.97;;;4.53;100.00
19672;BME280;9983;51.114;13.788;2022-12-07T22:54:43;98793.34;;;5.04;100.00
19672;BME280;9983;51.114;13.788;2022-12-07T22:59:44;98791.06;;;5.09;100.00
19672;BME280;9983;51.114;13.788;2022-12-07T23:04:44;98793.16;;;5.23;100.00
19672;BME280;9983;51.114;13.788;2022-12-07T23:09:44;98787.53;;;5.26;100.00
19672;BME280;9983;51.114;13.788;2022-12-07T23:14:45;98786.69;;;4.74;100.00
19672;BME280;9983;51.114;13.788;2022-12-07T23:19:45;98794.81;;;5.24;100.00
19672;BME280;9983;51.114;13.788;2022-12-07T23:24:45;98778.59;;;5.36;100.00
19672;BME280;9983;51.114;13.788;2022-12-07T23:29:46;98783.41;;;5.06;100.00
19672;BME280;9983;51.114;13.788;2022-12-07T23:34:46;98788.66;;;5.24;100.00
19672;BME280;9983;51.114;13.788;2022-12-07T23:39:46;98785.66;;;4.93;100.00
19672;BME280;9983;51.114;13.788;2022-12-07T23:44:46;98779.22;;;5.04;100.00
19672;BME280;9983;51.114;13.788;2022-12-07T23:49:47;98771.66;;;5.43;100.00
19672;BME280;9983;51.114;13.788;2022-12-07T23:54:47;98775.38;;;5.58;100.00
19672;BME280;9983;51.114;13.788;2022-12-07T23:59:47;98768.44;;;5.31;100.00
